createdAt,value
2023-06-07T00:01:46.961Z,17.83
2023-06-07T00:04:49.585Z,17.96
2023-06-07T00:07:53.074Z,17.98
2023-06-07T00:10:55.175Z,17.87
2023-06-07T00:13:58.073Z,17.81
2023-06-07T00:17:00.748Z,17.78
2023-06-07T00:20:04.447Z,17.67
2023-06-07T00:23:08.014Z,17.74
2023-06-07T00:26:10.193Z,17.71
2023-06-07T00:29:13.044Z,17.82
2023-06-07T00:32:15.618Z,17.85
2023-06-07T00:35:17.966Z,17.88
2023-06-07T00:38:20.171Z,17.90
2023-06-07T00:41:23.566Z,17.83
2023-06-07T00:44:27.726Z,17.85
2023-06-07T00:47:30.897Z,17.88
2023-06-07T00:50:39.374Z,17.79
2023-06-07T00:53:44.239Z,17.83
2023-06-07T00:56:51.688Z,17.86
2023-06-07T00:59:54.309Z,17.85
2023-06-07T01:02:58.454Z,17.90
2023-06-07T01:06:03.915Z,17.84
2023-06-07T01:09:15.205Z,17.79
2023-06-07T01:12:19.528Z,17.73
2023-06-07T01:15:22.299Z,17.57
2023-06-07T01:18:25.931Z,17.71
2023-06-07T01:21:27.932Z,17.66
2023-06-07T01:24:32.039Z,17.69
2023-06-07T01:27:34.977Z,17.69
2023-06-07T01:30:37.602Z,17.68
2023-06-07T01:33:41.666Z,17.73
2023-06-07T01:36:44.963Z,17.57
2023-06-07T01:39:49.431Z,17.69
2023-06-07T01:42:53.232Z,17.72
2023-06-07T01:45:55.622Z,17.64
2023-06-07T01:48:57.812Z,17.66
2023-06-07T01:52:00.157Z,17.68
2023-06-07T01:55:05.330Z,17.64
2023-06-07T01:58:32.141Z,17.71
2023-06-07T02:02:03.256Z,17.84
2023-06-07T02:05:13.084Z,17.70
2023-06-07T02:08:25.434Z,17.75
2023-06-07T02:11:29.024Z,17.54
2023-06-07T02:14:31.969Z,17.62
2023-06-07T02:17:34.938Z,17.73
2023-06-07T02:20:38.744Z,17.66
2023-06-07T02:23:40.847Z,17.68
2023-06-07T02:26:43.815Z,17.76
2023-06-07T02:29:50.364Z,17.78
2023-06-07T02:32:55.187Z,17.69
2023-06-07T02:35:57.546Z,17.81
2023-06-07T02:39:00.145Z,17.82
2023-06-07T02:42:03.279Z,17.73
2023-06-07T02:45:06.123Z,17.68
2023-06-07T02:48:08.659Z,17.61
2023-06-07T02:51:11.099Z,17.71
2023-06-07T02:54:15.577Z,17.64
2023-06-07T02:57:19.141Z,17.63
2023-06-07T03:00:21.461Z,17.67
2023-06-07T03:03:25.170Z,17.66
2023-06-07T03:06:30.862Z,17.64
2023-06-07T03:09:33.629Z,17.60
2023-06-07T03:12:35.768Z,17.55
2023-06-07T03:15:38.634Z,17.47
2023-06-07T03:18:40.890Z,17.44
2023-06-07T03:21:45.891Z,17.40
2023-06-07T03:24:48.687Z,17.40
2023-06-07T03:27:50.938Z,17.34
2023-06-07T03:30:53.161Z,17.30
2023-06-07T03:33:55.736Z,17.22
2023-06-07T03:37:00.260Z,17.26
2023-06-07T03:40:02.448Z,17.23
2023-06-07T03:43:04.625Z,17.18
2023-06-07T03:46:09.997Z,17.27
2023-06-07T03:49:11.990Z,17.26
2023-06-07T03:52:14.006Z,17.27
2023-06-07T03:55:21.204Z,17.13
2023-06-07T03:58:24.659Z,17.12
2023-06-07T04:01:28.083Z,17.20
2023-06-07T04:04:34.073Z,17.11
2023-06-07T04:07:36.519Z,17.14
2023-06-07T04:10:38.572Z,17.30
2023-06-07T04:13:44.264Z,17.33
2023-06-07T04:16:47.808Z,17.29
2023-06-07T04:19:56.214Z,17.41
2023-06-07T04:22:58.366Z,17.35
2023-06-07T04:26:01.657Z,17.31
2023-06-07T04:29:04.506Z,17.34
2023-06-07T04:32:08.231Z,17.26
2023-06-07T04:35:11.514Z,17.33
2023-06-07T04:38:23.367Z,17.42
2023-06-07T04:41:34.400Z,17.41
2023-06-07T04:44:38.419Z,17.39
2023-06-07T04:47:48.469Z,17.48
2023-06-07T04:50:52.656Z,17.49
2023-06-07T04:53:59.716Z,17.53
2023-06-07T04:57:02.063Z,17.51
2023-06-07T05:00:07.729Z,17.44
2023-06-07T05:03:14.657Z,17.45
2023-06-07T05:06:18.642Z,17.46
2023-06-07T05:09:22.137Z,17.58
2023-06-07T05:12:24.590Z,17.57
2023-06-07T05:15:26.881Z,17.56
2023-06-07T05:18:30.051Z,17.65
2023-06-07T05:21:32.465Z,17.75
2023-06-07T05:24:34.536Z,17.74
2023-06-07T05:27:38.037Z,17.77
2023-06-07T05:30:40.852Z,17.93
2023-06-07T05:33:42.973Z,18.01
2023-06-07T05:36:46.778Z,18.07
2023-06-07T05:39:48.756Z,17.86
2023-06-07T05:42:51.525Z,18.00
2023-06-07T05:45:53.672Z,17.98
2023-06-07T05:48:58.599Z,17.93
2023-06-07T05:52:03.350Z,17.87
2023-06-07T05:55:06.126Z,18.05
2023-06-07T05:58:08.486Z,18.02
2023-06-07T06:01:12.652Z,17.90
2023-06-07T06:04:16.850Z,17.87
2023-06-07T06:07:22.454Z,18.10
2023-06-07T06:10:25.381Z,18.10
2023-06-07T06:13:31.737Z,18.19
2023-06-07T06:16:34.185Z,18.17
2023-06-07T06:19:37.957Z,18.12
2023-06-07T06:22:40.480Z,18.19
2023-06-07T06:25:44.042Z,18.11
2023-06-07T06:28:46.401Z,17.95
2023-06-07T06:31:48.508Z,18.06
2023-06-07T06:34:52.987Z,17.98
2023-06-07T06:37:55.129Z,18.15
2023-06-07T06:41:01.471Z,18.26
2023-06-07T06:44:04.031Z,18.35
2023-06-07T06:47:06.766Z,18.57
2023-06-07T06:50:27.027Z,18.69
2023-06-07T06:53:34.555Z,18.71
2023-06-07T06:56:41.192Z,18.71
2023-06-07T06:59:44.086Z,18.61
2023-06-07T07:02:49.591Z,18.84
2023-06-07T07:05:53.027Z,18.86
2023-06-07T07:09:01.827Z,18.90
2023-06-07T07:12:14.198Z,18.92
2023-06-07T07:15:32.565Z,18.92
2023-06-07T07:18:51.871Z,19.12
2023-06-07T07:22:04.928Z,19.15
2023-06-07T07:25:07.639Z,19.02
2023-06-07T07:28:15.878Z,18.89
2023-06-07T07:31:18.507Z,19.02
2023-06-07T07:34:21.296Z,19.09
2023-06-07T07:37:23.772Z,19.10
2023-06-07T07:40:48.331Z,19.19
2023-06-07T07:43:51.954Z,19.19
2023-06-07T07:46:54.261Z,19.18
2023-06-07T07:49:59.342Z,19.29
2023-06-07T07:53:07.588Z,19.48
2023-06-07T07:56:11.021Z,19.35
2023-06-07T07:59:14.956Z,19.33
2023-06-07T08:02:17.101Z,19.42
2023-06-07T08:05:20.044Z,19.62
2023-06-07T08:08:24.585Z,19.68
2023-06-07T08:11:30.603Z,19.74
2023-06-07T08:14:34.496Z,19.57
2023-06-07T08:17:37.204Z,19.52
2023-06-07T08:20:39.641Z,19.76
2023-06-07T08:23:44.879Z,19.75
2023-06-07T08:26:49.030Z,19.86
2023-06-07T08:29:52.202Z,19.79
2023-06-07T08:32:57.224Z,19.93
2023-06-07T08:36:00.603Z,19.85
2023-06-07T08:39:03.616Z,19.84
2023-06-07T08:42:06.950Z,19.91
2023-06-07T08:45:09.877Z,19.95
2023-06-07T08:48:14.106Z,20.12
2023-06-07T08:51:18.938Z,20.05
2023-06-07T08:54:26.836Z,20.17
2023-06-07T08:57:33.629Z,20.21
2023-06-07T09:00:36.557Z,20.32
2023-06-07T09:03:39.139Z,20.46
2023-06-07T09:06:45.604Z,20.66
2023-06-07T09:09:50.902Z,20.82
2023-06-07T09:12:53.902Z,20.89
2023-06-07T09:15:58.926Z,20.84
2023-06-07T09:19:05.368Z,20.67
2023-06-07T09:25:58.181Z,20.66
2023-06-07T09:29:14.855Z,20.60
2023-06-07T09:32:30.428Z,20.48
2023-06-07T09:35:33.602Z,20.44
2023-06-07T09:38:40.282Z,20.52
2023-06-07T09:41:45.012Z,20.62
2023-06-07T09:44:47.831Z,20.51
2023-06-07T09:48:05.944Z,20.39
2023-06-07T09:51:09.713Z,20.51
2023-06-07T09:55:08.847Z,20.55
2023-06-07T09:58:28.285Z,20.81
2023-06-07T10:01:44.797Z,21.00
2023-06-07T10:05:06.600Z,20.90
2023-06-07T10:09:00.289Z,20.82
2023-06-07T10:12:21.536Z,20.95
2023-06-07T10:15:28.392Z,20.97
2023-06-07T10:18:31.913Z,21.02
2023-06-07T10:21:36.461Z,21.12
2023-06-07T10:25:22.286Z,21.05
2023-06-07T10:29:10.167Z,20.79
2023-06-07T10:32:17.072Z,20.97
2023-06-07T10:35:25.413Z,21.16
2023-06-07T10:38:32.158Z,21.42
2023-06-07T10:41:36.757Z,21.50
2023-06-07T10:44:39.336Z,21.50
2023-06-07T10:47:41.622Z,21.40
2023-06-07T10:50:51.103Z,21.45
2023-06-07T10:53:55.049Z,21.35
2023-06-07T10:56:57.242Z,21.33
2023-06-07T11:00:26.308Z,21.22
2023-06-07T11:03:34.839Z,21.42
2023-06-07T11:07:15.910Z,21.39
2023-06-07T11:10:18.333Z,21.40
2023-06-07T11:13:22.469Z,21.41
2023-06-07T11:16:53.697Z,21.35
2023-06-07T11:20:19.064Z,21.46
2023-06-07T11:27:29.442Z,21.47
2023-06-07T11:30:39.703Z,21.77
2023-06-07T11:33:56.698Z,21.51
2023-06-07T11:37:16.889Z,21.65
2023-06-07T11:40:22.576Z,21.78
2023-06-07T11:43:26.788Z,21.92
2023-06-07T11:46:36.454Z,22.01
2023-06-07T11:49:39.917Z,22.23
2023-06-07T11:52:42.671Z,22.23
2023-06-07T11:55:45.017Z,22.48
2023-06-07T11:58:47.405Z,22.61
2023-06-07T12:01:59.809Z,22.31
2023-06-07T12:05:07.049Z,22.43
2023-06-07T12:08:14.942Z,22.49
2023-06-07T12:11:17.903Z,22.67
2023-06-07T12:14:34.877Z,22.25
2023-06-07T12:17:40.619Z,22.25
2023-06-07T12:20:45.463Z,22.74
2023-06-07T12:23:52.933Z,22.83
2023-06-07T12:26:58.234Z,23.07
2023-06-07T12:30:01.310Z,22.80
2023-06-07T12:33:03.893Z,22.70
2023-06-07T12:36:09.252Z,22.68
2023-06-07T12:39:13.335Z,22.76
2023-06-07T12:42:18.187Z,22.93
2023-06-07T12:45:20.897Z,22.95
2023-06-07T12:48:22.917Z,23.16
2023-06-07T12:51:25.971Z,23.22
2023-06-07T12:54:29.092Z,23.20
2023-06-07T12:57:31.171Z,23.16
2023-06-07T13:00:33.509Z,23.01
2023-06-07T13:03:38.449Z,22.92
2023-06-07T13:06:43.332Z,22.93
2023-06-07T13:09:49.169Z,22.97
2023-06-07T13:12:51.421Z,23.16
2023-06-07T13:15:55.938Z,23.31
2023-06-07T13:19:05.860Z,23.21
2023-06-07T13:22:15.665Z,23.04
2023-06-07T13:25:17.946Z,23.05
2023-06-07T13:28:20.874Z,23.24
2023-06-07T13:31:23.398Z,23.23
2023-06-07T13:34:25.989Z,23.58
2023-06-07T13:37:28.829Z,23.59
2023-06-07T13:40:31.406Z,23.75
2023-06-07T13:46:39.287Z,23.73
2023-06-07T13:49:43.324Z,23.50
2023-06-07T13:52:47.194Z,23.35
2023-06-07T13:55:52.278Z,23.33
2023-06-07T13:58:58.243Z,23.72
2023-06-07T14:02:02.943Z,23.94
2023-06-07T14:05:06.585Z,24.24
2023-06-07T14:08:12.359Z,24.39
2023-06-07T14:11:15.222Z,24.36
2023-06-07T14:14:17.789Z,24.22
2023-06-07T14:17:20.515Z,23.73
2023-06-07T14:20:22.815Z,23.59
2023-06-07T14:23:25.269Z,23.57
2023-06-07T14:26:30.206Z,23.61
2023-06-07T14:29:33.053Z,23.59
2023-06-07T14:32:36.778Z,23.82
2023-06-07T14:35:39.384Z,23.65
2023-06-07T14:38:43.069Z,23.69
2023-06-07T14:41:45.458Z,23.67
2023-06-07T14:44:47.677Z,23.31
2023-06-07T14:47:49.925Z,23.27
2023-06-07T14:50:52.126Z,23.28
2023-06-07T14:53:54.452Z,23.17
2023-06-07T14:56:57.567Z,23.25
2023-06-07T14:59:59.900Z,22.91
2023-06-07T15:03:03.301Z,22.86
2023-06-07T15:06:06.454Z,22.80
2023-06-07T15:09:08.840Z,22.73
2023-06-07T15:12:12.844Z,22.63
2023-06-07T15:15:17.417Z,22.53
2023-06-07T15:18:22.008Z,22.43
2023-06-07T15:21:25.157Z,21.56
2023-06-07T15:24:27.694Z,21.54
2023-06-07T15:27:55.633Z,21.03
2023-06-07T15:31:02.212Z,20.83
2023-06-07T15:34:04.869Z,20.83
2023-06-07T15:37:08.041Z,21.00
2023-06-07T15:40:10.611Z,21.00
2023-06-07T15:43:15.039Z,21.02
2023-06-07T15:46:17.777Z,21.14
2023-06-07T15:49:20.292Z,21.18
2023-06-07T15:52:23.211Z,20.98
2023-06-07T15:55:26.696Z,21.10
2023-06-07T15:58:28.931Z,21.13
2023-06-07T16:01:32.599Z,21.24
2023-06-07T16:04:34.816Z,21.38
2023-06-07T16:07:37.624Z,21.50
2023-06-07T16:10:41.473Z,21.56
2023-06-07T16:13:43.647Z,21.75
2023-06-07T16:16:46.315Z,21.83
2023-06-07T16:19:50.464Z,22.03
2023-06-07T16:22:53.707Z,21.91
2023-06-07T16:25:59.697Z,22.24
2023-06-07T16:29:01.841Z,22.46
2023-06-07T16:32:06.314Z,22.34
2023-06-07T16:35:09.997Z,22.31
2023-06-07T16:38:12.298Z,22.30
2023-06-07T16:41:14.783Z,22.07
2023-06-07T16:44:19.761Z,22.06
2023-06-07T16:47:22.254Z,21.97
2023-06-07T16:50:25.526Z,22.03
2023-06-07T16:53:27.771Z,22.01
2023-06-07T16:56:30.758Z,22.10
2023-06-07T16:59:33.379Z,21.88
2023-06-07T17:02:35.738Z,22.02
2023-06-07T17:05:38.245Z,21.85
2023-06-07T17:08:43.738Z,21.90
2023-06-07T17:11:50.185Z,21.90
2023-06-07T17:14:52.507Z,21.87
2023-06-07T17:17:54.879Z,21.83
2023-06-07T17:20:57.405Z,21.75
2023-06-07T17:23:59.580Z,21.68
2023-06-07T17:27:02.530Z,21.33
2023-06-07T17:30:05.593Z,21.13
2023-06-07T17:33:09.222Z,21.00
2023-06-07T17:36:11.928Z,20.83
2023-06-07T17:39:14.930Z,20.79
2023-06-07T17:42:22.368Z,20.61
2023-06-07T17:45:24.982Z,20.55
2023-06-07T17:48:27.737Z,20.49
2023-06-07T17:51:32.256Z,20.43
2023-06-07T17:54:34.646Z,20.23
2023-06-07T17:57:37.120Z,19.92
2023-06-07T18:00:39.590Z,19.74
2023-06-07T18:03:45.929Z,19.33
2023-06-07T18:06:47.936Z,19.11
2023-06-07T18:09:50.533Z,19.02
2023-06-07T18:12:52.606Z,18.98
2023-06-07T18:15:55.842Z,18.87
2023-06-07T18:18:58.092Z,18.65
2023-06-07T18:22:01.351Z,18.51
2023-06-07T18:25:04.274Z,18.26
2023-06-07T18:28:07.504Z,18.23
2023-06-07T18:31:09.512Z,18.12
2023-06-07T18:34:17.797Z,18.01
2023-06-07T18:37:20.209Z,17.93
2023-06-07T18:40:23.030Z,18.01
2023-06-07T18:43:25.364Z,18.06
2023-06-07T18:46:27.507Z,18.09
2023-06-07T18:49:31.951Z,18.11
2023-06-07T18:52:37.442Z,18.16
2023-06-07T18:55:39.685Z,18.14
2023-06-07T18:58:42.197Z,18.03
2023-06-07T19:01:51.754Z,18.10
2023-06-07T19:04:54.712Z,18.02
2023-06-07T19:07:59.455Z,18.08
2023-06-07T19:11:02.055Z,18.14
2023-06-07T19:14:06.035Z,18.08
2023-06-07T19:17:08.497Z,18.10
2023-06-07T19:20:14.354Z,18.15
2023-06-07T19:23:16.980Z,18.16
2023-06-07T19:26:19.744Z,18.19
2023-06-07T19:29:22.354Z,18.30
2023-06-07T19:32:24.708Z,18.37
2023-06-07T19:35:27.452Z,18.30
2023-06-07T19:38:31.133Z,18.37
2023-06-07T19:41:33.703Z,18.46
2023-06-07T19:44:38.957Z,18.44
2023-06-07T19:47:42.651Z,18.46
2023-06-07T19:50:45.066Z,18.41
2023-06-07T19:53:47.758Z,18.42
2023-06-07T19:56:50.043Z,18.48
2023-06-07T19:59:53.382Z,18.46
2023-06-07T20:02:55.742Z,18.54
2023-06-07T20:05:58.294Z,18.51
2023-06-07T20:09:00.483Z,18.49
2023-06-07T20:12:03.709Z,18.54
2023-06-07T20:15:06.642Z,18.49
2023-06-07T20:18:09.001Z,18.50
2023-06-07T20:21:11.246Z,18.45
2023-06-07T20:24:14.359Z,18.41
2023-06-07T20:27:16.510Z,18.40
2023-06-07T20:30:19.838Z,18.39
2023-06-07T20:33:22.082Z,18.36
2023-06-07T20:36:24.142Z,18.35
2023-06-07T20:39:27.519Z,18.35
2023-06-07T20:42:32.247Z,18.34
2023-06-07T20:45:34.479Z,18.40
2023-06-07T20:48:37.883Z,18.38
2023-06-07T20:51:40.124Z,18.42
2023-06-07T20:54:42.230Z,18.33
2023-06-07T20:57:44.380Z,18.37
2023-06-07T21:00:46.894Z,18.32
2023-06-07T21:03:51.708Z,18.29
2023-06-07T21:06:55.922Z,18.23
2023-06-07T21:09:58.003Z,18.23
2023-06-07T21:13:01.349Z,18.18
2023-06-07T21:16:03.665Z,18.21
2023-06-07T21:19:07.619Z,18.19
2023-06-07T21:22:09.795Z,18.30
2023-06-07T21:25:13.867Z,18.30
2023-06-07T21:28:16.595Z,18.29
2023-06-07T21:31:19.028Z,18.24
2023-06-07T21:34:22.495Z,18.26
2023-06-07T21:37:24.724Z,18.19
2023-06-07T21:40:28.133Z,18.20
2023-06-07T21:43:30.352Z,18.21
2023-06-07T21:46:32.371Z,18.24
2023-06-07T21:49:34.758Z,18.22
2023-06-07T21:52:36.873Z,18.16
2023-06-07T21:55:38.971Z,18.15
2023-06-07T21:58:41.055Z,18.14
2023-06-07T22:01:43.198Z,18.09
2023-06-07T22:04:47.833Z,18.08
2023-06-07T22:07:50.493Z,18.04
2023-06-07T22:10:52.426Z,18.03
2023-06-07T22:13:58.669Z,17.99
2023-06-07T22:17:04.867Z,18.02
2023-06-07T22:20:08.152Z,18.04
2023-06-07T22:23:11.296Z,18.10
2023-06-07T22:26:16.494Z,18.07
2023-06-07T22:29:19.571Z,18.10
2023-06-07T22:32:29.204Z,18.10
2023-06-07T22:35:33.972Z,18.13
2023-06-07T22:38:37.046Z,18.31
2023-06-07T22:41:39.635Z,18.32
2023-06-07T22:44:41.518Z,18.29
2023-06-07T22:47:44.308Z,18.19
2023-06-07T22:50:48.902Z,18.14
2023-06-07T22:53:51.374Z,18.01
2023-06-07T22:56:53.599Z,17.93
2023-06-07T22:59:55.782Z,17.84
2023-06-07T23:03:00.673Z,17.86
2023-06-07T23:06:03.460Z,17.87
2023-06-07T23:09:07.161Z,17.79
2023-06-07T23:12:10.451Z,17.80
2023-06-07T23:15:19.838Z,17.78
2023-06-07T23:18:21.972Z,17.73
2023-06-07T23:21:27.488Z,17.73
2023-06-07T23:24:30.791Z,17.71
2023-06-07T23:27:33.883Z,17.68
2023-06-07T23:30:39.404Z,17.70
2023-06-07T23:33:43.312Z,17.70
2023-06-07T23:36:45.961Z,17.70
2023-06-07T23:39:48.828Z,17.64
2023-06-07T23:42:53.766Z,17.59
2023-06-07T23:45:56.479Z,17.65
2023-06-07T23:49:00.112Z,17.69
2023-06-07T23:52:03.599Z,17.67
2023-06-07T23:55:06.551Z,17.68
2023-06-07T23:58:08.913Z,17.62
